createdAt,value
2018-12-13T00:01:13.465Z,65.30
2018-12-13T00:03:48.280Z,64.20
2018-12-13T00:06:23.278Z,64.00
2018-12-13T00:08:55.418Z,64.80
2018-12-13T00:14:38.515Z,65.80
2018-12-13T00:17:11.263Z,66.90
2018-12-13T00:19:43.923Z,67.10
2018-12-13T00:22:15.115Z,69.10
2018-12-13T00:24:47.728Z,70.10
2018-12-13T00:27:20.675Z,71.40
2018-12-13T00:29:53.587Z,74.40
2018-12-13T00:32:26.773Z,75.90
2018-12-13T00:34:59.428Z,76.30
2018-12-13T00:37:30.475Z,77.20
2018-12-13T00:40:03.212Z,78.90
2018-12-13T00:42:35.765Z,78.60
2018-12-13T00:45:08.690Z,81.20
2018-12-13T00:47:41.423Z,81.00
2018-12-13T00:50:14.321Z,82.30
2018-12-13T00:52:47.132Z,83.20
2018-12-13T00:55:19.885Z,84.50
2018-12-13T00:57:52.882Z,85.70
2018-12-13T01:00:25.668Z,86.90
2018-12-13T01:02:58.661Z,87.70
2018-12-13T01:05:31.606Z,88.20
2018-12-13T01:08:02.388Z,88.70
2018-12-13T01:10:36.590Z,90.30
2018-12-13T01:13:09.353Z,90.80
2018-12-13T01:15:42.100Z,91.80
2018-12-13T01:18:14.925Z,91.90
2018-12-13T01:20:47.855Z,91.90
2018-12-13T01:23:20.809Z,92.60
2018-12-13T01:25:52.984Z,92.70
2018-12-13T01:28:25.777Z,92.70
2018-12-13T01:30:58.711Z,92.50
2018-12-13T01:33:34.915Z,92.60
2018-12-13T01:36:07.211Z,92.70
2018-12-13T01:38:39.786Z,93.30
2018-12-13T01:41:12.876Z,93.40
2018-12-13T01:43:45.596Z,93.70
2018-12-13T01:46:18.648Z,94.00
2018-12-13T01:48:52.609Z,95.00
2018-12-13T01:51:25.386Z,95.00
2018-12-13T01:53:58.194Z,94.80
2018-12-13T01:56:31.133Z,94.70
2018-12-13T01:59:04.149Z,95.00
2018-12-13T02:01:36.732Z,95.60
2018-12-13T02:04:09.611Z,95.80
2018-12-13T02:06:44.649Z,96.00
2018-12-13T02:09:17.048Z,95.90
2018-12-13T02:11:49.402Z,96.40
2018-12-13T02:14:21.921Z,96.60
2018-12-13T02:16:54.687Z,97.00
2018-12-13T02:19:27.604Z,97.00
2018-12-13T02:22:00.487Z,97.10
2018-12-13T02:24:33.260Z,97.20
2018-12-13T02:27:06.248Z,97.60
2018-12-13T02:29:38.908Z,97.60
2018-12-13T02:32:11.807Z,97.60
2018-12-13T02:34:44.446Z,97.20
2018-12-13T02:37:17.349Z,96.80
2018-12-13T02:39:52.523Z,96.80
2018-12-13T02:42:24.912Z,97.00
2018-12-13T02:44:57.806Z,96.20
2018-12-13T02:47:30.565Z,96.00
2018-12-13T02:50:04.224Z,96.40
2018-12-13T02:52:36.308Z,96.50
2018-12-13T02:55:09.000Z,96.60
2018-12-13T02:57:41.784Z,96.60
2018-12-13T03:00:14.636Z,96.60
2018-12-13T03:02:48.757Z,96.80
2018-12-13T03:05:21.790Z,96.60
2018-12-13T03:07:54.593Z,96.50
2018-12-13T03:10:27.248Z,96.30
2018-12-13T03:12:59.521Z,95.90
2018-12-13T03:15:32.518Z,95.30
2018-12-13T03:18:05.601Z,95.60
2018-12-13T03:20:38.317Z,96.00
2018-12-13T03:23:11.076Z,96.40
2018-12-13T03:25:43.971Z,96.50
2018-12-13T03:28:16.537Z,96.90
2018-12-13T03:30:49.254Z,97.40
2018-12-13T03:33:22.038Z,97.70
2018-12-13T03:35:55.081Z,98.00
2018-12-13T03:38:27.826Z,98.30
2018-12-13T03:41:01.877Z,98.40
2018-12-13T03:43:37.801Z,98.70
2018-12-13T03:46:09.991Z,98.60
2018-12-13T03:48:42.859Z,98.60
2018-12-13T03:51:15.603Z,98.30
2018-12-13T03:53:48.337Z,98.40
2018-12-13T03:56:21.249Z,98.80
2018-12-13T03:58:53.852Z,98.90
2018-12-13T04:01:26.414Z,99.10
2018-12-13T04:03:59.061Z,99.30
2018-12-13T04:06:31.941Z,99.40
2018-12-13T04:11:36.135Z,99.80
2018-12-13T04:14:07.177Z,99.80
2018-12-13T04:16:39.969Z,99.80
2018-12-13T04:19:12.879Z,99.90
2018-12-13T04:21:45.863Z,99.90
2018-12-13T04:24:18.633Z,99.90
2018-12-13T04:26:51.365Z,99.90
2018-12-13T04:29:24.301Z,99.90
2018-12-13T04:31:57.184Z,99.90
2018-12-13T04:34:29.968Z,99.90
2018-12-13T04:37:02.754Z,99.90
2018-12-13T04:39:35.428Z,99.90
2018-12-13T04:42:08.243Z,99.90
2018-12-13T04:44:41.059Z,99.90
2018-12-13T04:47:13.840Z,99.90
2018-12-13T04:49:46.733Z,99.90
2018-12-13T04:52:19.701Z,99.90
2018-12-13T04:54:52.394Z,99.90
2018-12-13T04:57:25.291Z,99.90
2018-12-13T04:59:58.158Z,99.90
2018-12-13T05:02:30.887Z,99.90
2018-12-13T05:05:04.037Z,99.90
2018-12-13T05:07:41.745Z,99.90
2018-12-13T05:10:27.061Z,99.90
2018-12-13T05:25:32.221Z,99.90
2018-12-13T05:28:05.018Z,99.90
2018-12-13T05:30:37.773Z,99.90
2018-12-13T05:33:10.386Z,99.90
2018-12-13T05:35:43.296Z,99.90
2018-12-13T05:38:16.681Z,99.90
2018-12-13T05:40:48.731Z,99.90
2018-12-13T05:43:21.501Z,99.90
2018-12-13T05:45:54.271Z,99.90
2018-12-13T05:48:26.261Z,99.90
2018-12-13T05:50:58.258Z,99.90
2018-12-13T05:53:30.970Z,99.90
2018-12-13T05:56:04.001Z,99.90
2018-12-13T05:58:36.511Z,99.90
2018-12-13T06:01:08.559Z,99.90
2018-12-13T06:03:40.571Z,99.90
2018-12-13T06:06:15.601Z,99.90
2018-12-13T06:08:47.946Z,99.90
2018-12-13T06:11:20.900Z,99.90
2018-12-13T06:13:53.745Z,99.90
2018-12-13T06:16:26.436Z,99.90
2018-12-13T06:18:59.312Z,99.90
2018-12-13T06:21:29.955Z,99.90
2018-12-13T06:24:00.796Z,99.90
2018-12-13T06:26:33.729Z,99.90
2018-12-13T06:29:06.721Z,99.90
2018-12-13T06:31:39.740Z,99.90
2018-12-13T06:34:13.164Z,99.90
2018-12-13T06:36:45.954Z,99.90
2018-12-13T06:39:18.832Z,99.90
2018-12-13T06:41:51.793Z,99.90
2018-12-13T06:44:24.679Z,99.90
2018-12-13T06:46:57.412Z,99.90
2018-12-13T06:49:30.222Z,99.90
2018-12-13T06:52:02.659Z,99.90
2018-12-13T06:54:35.363Z,99.90
2018-12-13T06:57:07.482Z,99.90
2018-12-13T06:59:40.228Z,99.90
2018-12-13T07:02:13.140Z,99.90
2018-12-13T07:04:46.007Z,99.90
2018-12-13T07:07:16.996Z,99.90
2018-12-13T07:09:49.663Z,99.90
2018-12-13T07:12:22.439Z,99.90
2018-12-13T07:14:55.474Z,99.90
2018-12-13T07:17:28.104Z,99.90
2018-12-13T07:20:01.020Z,99.90
2018-12-13T07:22:34.009Z,99.90
2018-12-13T07:25:07.023Z,99.90
2018-12-13T07:27:39.722Z,99.90
2018-12-13T07:30:13.029Z,99.90
2018-12-13T07:32:45.320Z,99.90
2018-12-13T07:35:18.319Z,99.90
2018-12-13T07:37:51.212Z,99.90
2018-12-13T07:40:24.023Z,99.90
2018-12-13T07:46:03.930Z,99.90
2018-12-13T07:48:38.364Z,99.90
2018-12-13T07:51:10.447Z,99.90
2018-12-13T07:53:43.087Z,99.90
2018-12-13T07:56:15.782Z,99.90
2018-12-13T07:58:48.830Z,99.90
2018-12-13T08:01:21.814Z,99.90
2018-12-13T08:03:54.414Z,99.90
2018-12-13T08:06:27.384Z,99.90
2018-12-13T08:09:00.234Z,99.90
2018-12-13T08:11:30.849Z,99.90
2018-12-13T08:14:04.069Z,99.90
2018-12-13T08:16:36.827Z,99.90
2018-12-13T08:19:10.220Z,99.70
2018-12-13T08:21:45.162Z,99.80
